Flight Track Log - Related Links

Times and Time Zones

All times are in EDT time to prevent confusion due to time zone crossing. See the N543PU flight status page for this flight to view local times or setup timezone preferences in your user account.

Time Position Orientation Groundspeed Altitude Reporting Facility
EDT Latitude Longitude Course Direction KTS MPH feet Rate Location/Type
Thu 09:40:14 AM 40.1011 -88.3183 65° Northeast 97 112 4,300  Level Chicago Center
Thu 09:41:16 AM 40.1136 -88.2817 66° East 112 129 5,100 435 Climbing Chicago Center
Thu 09:42:18 AM 40.1131 -88.2300 91° East 133 153 5,200 48 Climbing Chicago Center
Thu 09:43:20 AM 40.1144 -88.1700 88° East 150 173 5,200 -48 Level Chicago Center
Thu 09:44:00 AM 40.1305 -87.9955 64° Northeast  Level FlightAware Approximate
Thu 09:44:22 AM 40.1142 -88.1097 90° East 160 184 5,100  Level Chicago Center
Thu 09:45:00 AM 40.1469 -87.9504 65° Northeast  Level FlightAware Approximate
Thu 09:45:24 AM 40.1178 -88.0400 86° East 161 185 5,100  Level Chicago Center
Thu 09:46:27 AM 40.1356 -87.9878 66° East 155 178 5,000 -48 Descending Chicago Center
Thu 09:47:29 AM 40.1556 -87.9367 63° Northeast 155 178 5,000  Level Chicago Center
Thu 09:48:31 AM 40.1717 -87.8883 66° East 155 178 5,000  Level Chicago Center
Thu 09:52:27 AM 40.2497 -87.6808 52° Northeast 181 208 5,000 20 Level Chicago Center
Thu 09:53:29 AM 40.2697 -87.6300 63° Northeast 161 185 5,100  Climbing Chicago Center
Thu 09:54:31 AM 40.2869 -87.5775 67° East 161 185 5,000 -162 Descending Chicago Center
Thu 09:54:43 AM 40.2906 -87.5661 67° East 158 182 4,900  Descending Chicago Center
Thu 09:55:01 AM 40.2975 -87.5503 60° Northeast 158 182 5,000 120 Climbing Chicago Center
Thu 09:55:33 AM 40.3086 -87.5297 55° Northeast 159 183 5,000  Level Chicago Center
Thu 09:56:02 AM 40.3228 -87.5031 55° Northeast 155 178 5,000  Level Chicago Center
Thu 09:56:35 AM 40.3322 -87.4814 60° Northeast 158 182 5,000 -400 Level Chicago Center
Thu 09:57:00 AM 40.3100 -87.5057 52° Northeast  Level FlightAware Approximate
Thu 09:57:02 AM 40.3414 -87.4553 65° Northeast 155 178 4,600  Level Chicago Center
Thu 09:57:37 AM 40.3517 -87.4319 60° Northeast 158 182 4,500 -590 Descending Chicago Center
Thu 09:58:03 AM 40.3644 -87.4078 55° Northeast 148 170 4,000 -571 Descending Chicago Center
Thu 09:58:40 AM 40.3822 -87.3833 46° Northeast 157 181 3,900 -700 Descending Chicago Center
Thu 09:59:03 AM 40.3936 -87.3608 56° Northeast 162 186 3,300 -643 Descending Chicago Center
Thu 10:00:04 AM 40.4083 -87.3047 71° East 164 189 3,000 -198 Descending Chicago Center
Thu 10:01:04 AM 40.4189 -87.2533 75° East 145 167 2,900 -50 Descending Chicago Center
Thu 10:02:05 AM 40.4314 -87.2053 71° East 137 158 2,900  Level Chicago Center
Thu 10:03:06 AM 40.4419 -87.1539 75° East 136 157 2,900  Level Chicago Center
Thu 10:04:06 AM 40.4333 -87.1042 103° East 145 167 2,900 -149 Level Chicago Center
Thu 10:05:07 AM 40.4289 -87.0575 97° East 123 142 2,600 -496 Descending Chicago Center
Thu 10:06:07 AM 40.4200 -87.0186 107° East 108 124 1,900 -700 Descending Chicago Center

Login

Don't have an account? Register now (free) for customized features, flight alerts, and more!